Aérodrome :
LOGIN :

S'inscrire | Disclaimer

   EN    FR    IT 

 










Légende :    VFR   VFR Marginal   IFR   IFR Intensif   IFR Très Intensif
Visi : 
Plafond : 
>= 8 km
>= 3000ft
5 à 8 km
1000 à 3000 ft
1500m à 5 km
500 à 1000 ft
800 à 1500m
200 à 500 ft
< 800m
< 200 ft
Symboles :   Orages  Brouillard  Fortes neiges  Fortes précipitations  Vent > 20 kt
SIGMETs :   Divers  Orages  Givrage  Turbulence  Onde Orograph.  Cendres Volcan.







- Altitude de l'aérodrome : 584 ft
- Voir les cartes d'approche


LFPV - Villacoublay Vélizy

DERNIER METAR :
  • 280630Z AUTO 24008KT 9999 BKN009 BKN096 17/14 Q1000 BECMG BKN016

METARs EXPIRÉS :
  • 280600Z AUTO 24007KT 210V270 9999 BKN007 BKN016 BKN022 16/15 Q1000 BECMG BKN016
  • 280530Z AUTO 24007KT 9999 BKN006 BKN013 OVC019 16/15 Q1000 BECMG BKN016
  • 280500Z AUTO 24005KT 200V260 9999 BKN007 BKN014 OVC021 16/15 Q1000 TEMPO OVC004
  • 280430Z AUTO 26005KT 9999 FEW006 OVC018 16/15 Q1000 BECMG BKN006
  • 280400Z AUTO 25006KT 9999 OVC007 16/15 Q1000 TEMPO OVC004

TAF TAF LFPV
Valide du 28 à 03h jusqu'au 29 à 03h UTC


280200Z 2803/2903 27008KT 8000 BKN006
TEMPO 2803/2806 OVC004
BECMG 2807/2809 BKN016
BECMG 2809/2810 SCT030TCU SCT040
TEMPO 2810/2822 4000 SHRA BKN030CB
PROB40
TEMPO 2811/2820 22015G30KT 2500 TSRA SCT010 BKN030CB
Pas de NOTAMs connus pour ce terrain.



MET'MAP, la Météo Aéronautique d'un coup d'oeil ! - Copyright ORBIFLY Décembre 2007 - Disclaimer

ORBIFLY MET'MAP TEAM :

Programmation & Développement : Alexandra Zaïnal
Conception & Développement : Baudouin d'Aumeries
Co-Programmation & Développement : Marc-Olivier Méhu
Soutien technique & logistique : Manuel Goepfert

Contact : metmap@orbifly.com




SOURCES & CREDITS :

   NOAA